sensor_id;sensor_type;location;lat;lon;timestamp;pressure;altitude;pressure_sealevel;temperature;humidity
12897;BME280;6516;35.028;32.372;2023-11-19T00:00:52;98973.69;;;17.45;68.93
12897;BME280;6516;35.028;32.372;2023-11-19T00:03:20;98963.03;;;17.45;68.84
12897;BME280;6516;35.028;32.372;2023-11-19T00:05:48;98962.66;;;17.51;68.77
12897;BME280;6516;35.028;32.372;2023-11-19T00:08:16;98960.19;;;17.48;68.90
12897;BME280;6516;35.028;32.372;2023-11-19T00:10:46;98963.03;;;17.45;68.68
12897;BME280;6516;35.028;32.372;2023-11-19T00:13:13;98957.94;;;17.42;67.47
12897;BME280;6516;35.028;32.372;2023-11-19T00:15:42;98947.84;;;17.47;65.99
12897;BME280;6516;35.028;32.372;2023-11-19T00:18:11;98951.66;;;17.43;65.42
12897;BME280;6516;35.028;32.372;2023-11-19T00:20:40;98937.59;;;17.41;64.28
12897;BME280;6516;35.028;32.372;2023-11-19T00:23:10;98940.81;;;17.46;63.92
12897;BME280;6516;35.028;32.372;2023-11-19T00:25:38;98932.41;;;17.52;63.33
12897;BME280;6516;35.028;32.372;2023-11-19T00:28:07;98928.25;;;17.48;64.11
12897;BME280;6516;35.028;32.372;2023-11-19T00:30:35;98936.13;;;17.49;64.57
12897;BME280;6516;35.028;32.372;2023-11-19T00:33:02;98938.91;;;17.48;65.22
12897;BME280;6516;35.028;32.372;2023-11-19T00:35:30;98943.66;;;17.43;67.08
12897;BME280;6516;35.028;32.372;2023-11-19T00:37:58;98945.19;;;17.33;68.13
12897;BME280;6516;35.028;32.372;2023-11-19T00:40:26;98952.47;;;17.29;68.73
12897;BME280;6516;35.028;32.372;2023-11-19T00:42:54;98952.06;;;17.23;69.09
12897;BME280;6516;35.028;32.372;2023-11-19T00:45:23;98949.66;;;17.18;69.52
12897;BME280;6516;35.028;32.372;2023-11-19T00:47:51;98949.56;;;17.20;67.00
12897;BME280;6516;35.028;32.372;2023-11-19T00:50:19;98945.41;;;17.16;66.76
12897;BME280;6516;35.028;32.372;2023-11-19T00:52:47;98945.22;;;17.19;66.26
12897;BME280;6516;35.028;32.372;2023-11-19T00:55:14;98952.41;;;17.17;66.20
12897;BME280;6516;35.028;32.372;2023-11-19T00:57:43;98936.09;;;17.09;65.93
12897;BME280;6516;35.028;32.372;2023-11-19T01:00:11;98944.06;;;17.09;65.74
12897;BME280;6516;35.028;32.372;2023-11-19T01:02:45;98945.22;;;17.05;66.42
12897;BME280;6516;35.028;32.372;2023-11-19T01:05:15;98943.97;;;16.96;67.08
12897;BME280;6516;35.028;32.372;2023-11-19T01:07:46;98944.94;;;16.95;67.37
12897;BME280;6516;35.028;32.372;2023-11-19T01:10:14;98938.88;;;16.93;67.08
12897;BME280;6516;35.028;32.372;2023-11-19T01:12:42;98938.09;;;16.91;67.09
12897;BME280;6516;35.028;32.372;2023-11-19T01:15:10;98937.38;;;16.89;66.93
12897;BME280;6516;35.028;32.372;2023-11-19T01:17:39;98933.28;;;16.84;66.76
12897;BME280;6516;35.028;32.372;2023-11-19T01:20:08;98937.84;;;16.82;66.32
12897;BME280;6516;35.028;32.372;2023-11-19T01:22:38;98945.81;;;16.82;64.35
12897;BME280;6516;35.028;32.372;2023-11-19T01:25:07;98944.47;;;16.89;63.24
12897;BME280;6516;35.028;32.372;2023-11-19T01:27:35;98945.59;;;16.85;63.89
12897;BME280;6516;35.028;32.372;2023-11-19T01:30:03;98952.06;;;16.81;64.30
12897;BME280;6516;35.028;32.372;2023-11-19T01:32:31;98952.16;;;16.79;65.33
12897;BME280;6516;35.028;32.372;2023-11-19T01:35:00;98948.00;;;16.75;65.66
12897;BME280;6516;35.028;32.372;2023-11-19T01:37:29;98942.88;;;16.72;66.39
12897;BME280;6516;35.028;32.372;2023-11-19T01:39:57;98947.31;;;16.72;65.39
12897;BME280;6516;35.028;32.372;2023-11-19T01:42:25;98934.72;;;16.75;65.67
12897;BME280;6516;35.028;32.372;2023-11-19T01:45:00;98939.91;;;16.77;64.96
12897;BME280;6516;35.028;32.372;2023-11-19T01:47:29;98945.59;;;16.71;65.41
12897;BME280;6516;35.028;32.372;2023-11-19T01:49:57;98947.31;;;16.72;65.61
12897;BME280;6516;35.028;32.372;2023-11-19T01:52:28;98938.19;;;16.76;65.29
12897;BME280;6516;35.028;32.372;2023-11-19T01:54:56;98950.75;;;16.74;65.54
12897;BME280;6516;35.028;32.372;2023-11-19T01:57:25;98947.69;;;16.80;64.79
12897;BME280;6516;35.028;32.372;2023-11-19T01:59:53;98953.97;;;16.79;64.47
12897;BME280;6516;35.028;32.372;2023-11-19T02:02:21;98939.81;;;16.78;62.72
12897;BME280;6516;35.028;32.372;2023-11-19T02:04:50;98940.28;;;16.85;62.29
12897;BME280;6516;35.028;32.372;2023-11-19T02:07:18;98933.09;;;16.87;62.41
12897;BME280;6516;35.028;32.372;2023-11-19T02:09:47;98926.03;;;16.86;62.39
12897;BME280;6516;35.028;32.372;2023-11-19T02:12:15;98931.56;;;16.83;64.06
12897;BME280;6516;35.028;32.372;2023-11-19T02:14:43;98934.78;;;16.88;63.40
12897;BME280;6516;35.028;32.372;2023-11-19T02:17:25;98937.25;;;16.91;63.97
12897;BME280;6516;35.028;32.372;2023-11-19T02:19:53;98938.97;;;16.92;62.60
12897;BME280;6516;35.028;32.372;2023-11-19T02:22:21;98936.31;;;16.92;60.70
12897;BME280;6516;35.028;32.372;2023-11-19T02:24:54;98945.44;;;16.88;60.64
12897;BME280;6516;35.028;32.372;2023-11-19T02:27:30;98933.84;;;16.89;57.09
12897;BME280;6516;35.028;32.372;2023-11-19T02:30:06;98951.00;;;16.83;59.36
12897;BME280;6516;35.028;32.372;2023-11-19T02:32:35;98938.03;;;16.79;59.17
12897;BME280;6516;35.028;32.372;2023-11-19T02:35:06;98933.28;;;16.84;57.20
12897;BME280;6516;35.028;32.372;2023-11-19T02:37:34;98920.06;;;16.82;56.16
12897;BME280;6516;35.028;32.372;2023-11-19T02:40:03;98933.28;;;16.84;58.16
12897;BME280;6516;35.028;32.372;2023-11-19T02:42:34;98927.97;;;16.84;59.70
12897;BME280;6516;35.028;32.372;2023-11-19T02:45:04;98945.59;;;16.85;59.79
12897;BME280;6516;35.028;32.372;2023-11-19T02:47:33;98936.41;;;16.76;60.65
12897;BME280;6516;35.028;32.372;2023-11-19T02:50:02;98930.44;;;16.73;60.24
12897;BME280;6516;35.028;32.372;2023-11-19T02:52:32;98945.53;;;16.72;59.94
12897;BME280;6516;35.028;32.372;2023-11-19T02:55:03;98938.59;;;16.70;60.22
12897;BME280;6516;35.028;32.372;2023-11-19T02:57:36;98935.63;;;16.60;60.71
12897;BME280;6516;35.028;32.372;2023-11-19T03:00:06;98933.47;;;16.67;59.25
12897;BME280;6516;35.028;32.372;2023-11-19T03:02:39;98933.06;;;16.59;58.62
12897;BME280;6516;35.028;32.372;2023-11-19T03:05:11;98927.97;;;16.56;55.64
12897;BME280;6516;35.028;32.372;2023-11-19T03:07:41;98913.06;;;16.53;55.83
12897;BME280;6516;35.028;32.372;2023-11-19T03:10:12;98910.09;;;16.58;53.28
12897;BME280;6516;35.028;32.372;2023-11-19T03:12:40;98925.31;;;16.56;53.51
12897;BME280;6516;35.028;32.372;2023-11-19T03:15:10;98932.50;;;16.54;54.18
12897;BME280;6516;35.028;32.372;2023-11-19T03:17:39;98924.63;;;16.52;54.60
12897;BME280;6516;35.028;32.372;2023-11-19T03:20:07;98924.81;;;16.49;55.06
12897;BME280;6516;35.028;32.372;2023-11-19T03:22:41;98920.25;;;16.51;54.55
12897;BME280;6516;35.028;32.372;2023-11-19T03:25:09;98915.97;;;16.49;54.82
12897;BME280;6516;35.028;32.372;2023-11-19T03:27:39;98917.97;;;16.45;55.53
12897;BME280;6516;35.028;32.372;2023-11-19T03:30:10;98921.69;;;16.43;55.26
12897;BME280;6516;35.028;32.372;2023-11-19T03:32:38;98910.19;;;16.42;57.04
12897;BME280;6516;35.028;32.372;2023-11-19T03:35:07;98911.22;;;16.40;57.56
12897;BME280;6516;35.028;32.372;2023-11-19T03:37:35;98910.28;;;16.41;56.87
12897;BME280;6516;35.028;32.372;2023-11-19T03:40:03;98912.50;;;16.48;55.17
12897;BME280;6516;35.028;32.372;2023-11-19T03:42:32;98903.84;;;16.45;55.02
12897;BME280;6516;35.028;32.372;2023-11-19T03:44:59;98911.72;;;16.46;53.67
12897;BME280;6516;35.028;32.372;2023-11-19T03:47:30;98904.47;;;16.34;54.18
12897;BME280;6516;35.028;32.372;2023-11-19T03:49:58;98898.56;;;16.29;54.98
12897;BME280;6516;35.028;32.372;2023-11-19T03:52:26;98905.22;;;16.36;55.26
12897;BME280;6516;35.028;32.372;2023-11-19T03:54:53;98909.19;;;16.29;55.24
12897;BME280;6516;35.028;32.372;2023-11-19T03:57:22;98917.94;;;16.31;55.66
12897;BME280;6516;35.028;32.372;2023-11-19T03:59:50;98900.09;;;16.33;54.96
12897;BME280;6516;35.028;32.372;2023-11-19T04:02:18;98894.22;;;16.28;56.10
12897;BME280;6516;35.028;32.372;2023-11-19T04:04:47;98883.59;;;16.28;56.10
12897;BME280;6516;35.028;32.372;2023-11-19T04:07:15;98881.00;;;16.27;56.41
12897;BME280;6516;35.028;32.372;2023-11-19T04:09:42;98883.31;;;16.19;57.18
12897;BME280;6516;35.028;32.372;2023-11-19T04:12:14;98874.72;;;16.14;57.84
12897;BME280;6516;35.028;32.372;2023-11-19T04:14:42;98869.53;;;16.12;58.00
12897;BME280;6516;35.028;32.372;2023-11-19T04:17:10;98871.91;;;16.17;58.70
12897;BME280;6516;35.028;32.372;2023-11-19T04:19:38;98875.91;;;16.10;59.34
12897;BME280;6516;35.028;32.372;2023-11-19T04:22:08;98878.56;;;16.10;57.39
12897;BME280;6516;35.028;32.372;2023-11-19T04:24:36;98874.94;;;16.11;56.74
12897;BME280;6516;35.028;32.372;2023-11-19T04:27:04;98869.63;;;16.11;58.00
12897;BME280;6516;35.028;32.372;2023-11-19T04:29:32;98871.34;;;16.12;58.08
12897;BME280;6516;35.028;32.372;2023-11-19T04:32:00;98864.81;;;16.17;57.46
12897;BME280;6516;35.028;32.372;2023-11-19T04:34:27;98877.03;;;16.20;56.51
12897;BME280;6516;35.028;32.372;2023-11-19T04:36:55;98883.19;;;16.20;58.59
12897;BME280;6516;35.028;32.372;2023-11-19T04:39:25;98887.84;;;16.17;59.47
12897;BME280;6516;35.028;32.372;2023-11-19T04:41:52;98887.47;;;16.23;59.59
12897;BME280;6516;35.028;32.372;2023-11-19T04:44:27;98880.25;;;16.25;59.03
12897;BME280;6516;35.028;32.372;2023-11-19T04:46:55;98873.25;;;16.24;59.80
12897;BME280;6516;35.028;32.372;2023-11-19T04:49:23;98864.72;;;16.33;60.24
12897;BME280;6516;35.028;32.372;2023-11-19T04:51:52;98874.22;;;16.37;60.07
12897;BME280;6516;35.028;32.372;2023-11-19T04:54:20;98868.03;;;16.36;58.05
12897;BME280;6516;35.028;32.372;2023-11-19T04:56:50;98861.69;;;16.39;57.58
12897;BME280;6516;35.028;32.372;2023-11-19T04:59:18;98870.78;;;16.35;58.08
12897;BME280;6516;35.028;32.372;2023-11-19T05:01:47;98869.09;;;16.34;58.52
12897;BME280;6516;35.028;32.372;2023-11-19T05:04:15;98873.88;;;16.43;59.20
12897;BME280;6516;35.028;32.372;2023-11-19T05:06:44;98886.00;;;16.47;58.62
12897;BME280;6516;35.028;32.372;2023-11-19T05:09:12;98889.41;;;16.49;58.55
12897;BME280;6516;35.028;32.372;2023-11-19T05:11:39;98886.97;;;16.60;58.55
12897;BME280;6516;35.028;32.372;2023-11-19T05:14:09;98895.19;;;16.69;57.89
12897;BME280;6516;35.028;32.372;2023-11-19T05:16:39;98903.47;;;16.79;56.78
12897;BME280;6516;35.028;32.372;2023-11-19T05:19:07;98903.94;;;16.85;56.19
12897;BME280;6516;35.028;32.372;2023-11-19T05:21:34;98912.56;;;16.89;56.61
12897;BME280;6516;35.028;32.372;2023-11-19T05:24:03;98906.66;;;16.98;55.18
12897;BME280;6516;35.028;32.372;2023-11-19T05:26:31;98912.53;;;17.03;55.66
12897;BME280;6516;35.028;32.372;2023-11-19T05:28:59;98914.06;;;17.07;57.29
12897;BME280;6516;35.028;32.372;2023-11-19T05:31:28;98896.66;;;17.15;57.59
12897;BME280;6516;35.028;32.372;2023-11-19T05:33:56;98901.28;;;17.26;57.45
12897;BME280;6516;35.028;32.372;2023-11-19T05:36:23;98904.13;;;17.37;57.73
12897;BME280;6516;35.028;32.372;2023-11-19T05:38:51;98908.75;;;17.47;58.55
12897;BME280;6516;35.028;32.372;2023-11-19T05:41:19;98907.72;;;17.50;59.40
12897;BME280;6516;35.028;32.372;2023-11-19T05:43:47;98911.69;;;17.57;59.16
12897;BME280;6516;35.028;32.372;2023-11-19T05:46:14;98902.63;;;17.59;58.22
12897;BME280;6516;35.028;32.372;2023-11-19T05:48:44;98904.06;;;17.65;58.20
12897;BME280;6516;35.028;32.372;2023-11-19T05:51:12;98899.28;;;17.70;57.93
12897;BME280;6516;35.028;32.372;2023-11-19T05:53:40;98918.88;;;17.69;56.82
12897;BME280;6516;35.028;32.372;2023-11-19T05:56:09;98909.50;;;17.76;56.42
12897;BME280;6516;35.028;32.372;2023-11-19T05:58:37;98894.84;;;17.83;56.07
12897;BME280;6516;35.028;32.372;2023-11-19T06:01:06;98911.47;;;17.86;56.00
12897;BME280;6516;35.028;32.372;2023-11-19T06:03:34;98915.91;;;17.86;56.48
12897;BME280;6516;35.028;32.372;2023-11-19T06:06:04;98915.28;;;17.82;57.23
12897;BME280;6516;35.028;32.372;2023-11-19T06:08:32;98923.91;;;17.86;57.73
12897;BME280;6516;35.028;32.372;2023-11-19T06:11:00;98915.09;;;17.85;58.17
12897;BME280;6516;35.028;32.372;2023-11-19T06:13:28;98924.75;;;17.74;57.80
12897;BME280;6516;35.028;32.372;2023-11-19T06:15:56;98923.06;;;17.59;56.97
12897;BME280;6516;35.028;32.372;2023-11-19T06:18:24;98923.28;;;17.56;57.31
12897;BME280;6516;35.028;32.372;2023-11-19T06:20:53;98924.06;;;17.44;55.93
12897;BME280;6516;35.028;32.372;2023-11-19T06:23:22;98928.38;;;17.59;54.82
12897;BME280;6516;35.028;32.372;2023-11-19T06:25:50;98918.25;;;17.78;51.41
12897;BME280;6516;35.028;32.372;2023-11-19T06:28:18;98912.97;;;18.03;52.28
12897;BME280;6516;35.028;32.372;2023-11-19T06:30:45;98912.81;;;18.31;51.51
12897;BME280;6516;35.028;32.372;2023-11-19T06:33:13;98906.13;;;18.50;51.39
12897;BME280;6516;35.028;32.372;2023-11-19T06:35:41;98899.06;;;18.74;51.34
12897;BME280;6516;35.028;32.372;2023-11-19T06:38:10;98895.66;;;18.97;50.46
12897;BME280;6516;35.028;32.372;2023-11-19T06:40:39;98891.00;;;19.12;50.99
12897;BME280;6516;35.028;32.372;2023-11-19T06:43:07;98887.91;;;19.30;50.19
12897;BME280;6516;35.028;32.372;2023-11-19T06:45:35;98899.50;;;19.42;51.38
12897;BME280;6516;35.028;32.372;2023-11-19T06:48:03;98893.69;;;19.48;49.90
12897;BME280;6516;35.028;32.372;2023-11-19T06:50:32;98901.44;;;19.63;48.07
12897;BME280;6516;35.028;32.372;2023-11-19T06:52:59;98901.50;;;19.75;47.01
12897;BME280;6516;35.028;32.372;2023-11-19T06:55:27;98900.94;;;19.93;46.28
12897;BME280;6516;35.028;32.372;2023-11-19T06:57:59;98903.34;;;20.09;44.90
12897;BME280;6516;35.028;32.372;2023-11-19T07:00:29;98911.63;;;20.17;45.50
12897;BME280;6516;35.028;32.372;2023-11-19T07:02:58;98904.13;;;20.33;45.91
12897;BME280;6516;35.028;32.372;2023-11-19T07:05:26;98894.06;;;20.36;46.31
12897;BME280;6516;35.028;32.372;2023-11-19T07:07:54;98894.84;;;20.49;46.29
12897;BME280;6516;35.028;32.372;2023-11-19T07:10:22;98885.94;;;20.60;46.43
12897;BME280;6516;35.028;32.372;2023-11-19T07:12:49;98890.81;;;20.55;46.38
12897;BME280;6516;35.028;32.372;2023-11-19T07:15:21;98885.34;;;20.45;46.12
12897;BME280;6516;35.028;32.372;2023-11-19T07:17:49;98894.84;;;20.49;45.31
12897;BME280;6516;35.028;32.372;2023-11-19T07:20:17;98895.78;;;20.48;45.24
12897;BME280;6516;35.028;32.372;2023-11-19T07:22:44;98908.19;;;20.49;46.12
12897;BME280;6516;35.028;32.372;2023-11-19T07:25:13;98919.59;;;20.40;44.74
12897;BME280;6516;35.028;32.372;2023-11-19T07:27:41;98911.59;;;20.40;44.92
12897;BME280;6516;35.028;32.372;2023-11-19T07:30:09;98906.72;;;20.56;43.90
12897;BME280;6516;35.028;32.372;2023-11-19T07:32:38;98901.31;;;20.91;43.44
12897;BME280;6516;35.028;32.372;2023-11-19T07:35:07;98898.88;;;21.21;42.86
12897;BME280;6516;35.028;32.372;2023-11-19T07:37:35;98900.59;;;21.53;42.00
12897;BME280;6516;35.028;32.372;2023-11-19T07:40:03;98905.13;;;21.53;40.63
12897;BME280;6516;35.028;32.372;2023-11-19T07:42:31;98898.91;;;21.63;40.33
12897;BME280;6516;35.028;32.372;2023-11-19T07:44:59;98906.63;;;21.88;39.68
12897;BME280;6516;35.028;32.372;2023-11-19T07:47:27;98906.34;;;21.71;41.39
12897;BME280;6516;35.028;32.372;2023-11-19T07:49:56;98915.88;;;21.31;41.98
12897;BME280;6516;35.028;32.372;2023-11-19T07:52:24;98920.91;;;20.91;43.46
12897;BME280;6516;35.028;32.372;2023-11-19T07:54:52;98925.22;;;20.59;43.05
12897;BME280;6516;35.028;32.372;2023-11-19T07:57:20;98929.56;;;20.38;43.98
12897;BME280;6516;35.028;32.372;2023-11-19T07:59:49;98939.56;;;20.13;44.51
12897;BME280;6516;35.028;32.372;2023-11-19T08:02:17;98936.47;;;20.06;44.71
12897;BME280;6516;35.028;32.372;2023-11-19T08:04:45;98939.78;;;20.10;44.95
12897;BME280;6516;35.028;32.372;2023-11-19T08:07:17;98929.84;;;20.12;45.73
12897;BME280;6516;35.028;32.372;2023-11-19T08:09:45;98942.09;;;19.91;47.06
12897;BME280;6516;35.028;32.372;2023-11-19T08:12:13;98941.81;;;19.83;46.40
12897;BME280;6516;35.028;32.372;2023-11-19T08:14:42;98949.09;;;19.81;44.77
12897;BME280;6516;35.028;32.372;2023-11-19T08:17:10;98945.81;;;19.77;43.42
12897;BME280;6516;35.028;32.372;2023-11-19T08:19:38;98937.50;;;19.69;43.26
12897;BME280;6516;35.028;32.372;2023-11-19T08:22:06;98937.56;;;19.57;43.50
12897;BME280;6516;35.028;32.372;2023-11-19T08:24:36;98936.50;;;19.46;45.55
12897;BME280;6516;35.028;32.372;2023-11-19T08:27:04;98944.78;;;19.43;43.90
12897;BME280;6516;35.028;32.372;2023-11-19T08:29:32;98942.00;;;19.32;43.59
12897;BME280;6516;35.028;32.372;2023-11-19T08:32:00;98936.25;;;19.26;44.73
12897;BME280;6516;35.028;32.372;2023-11-19T08:34:29;98945.41;;;19.22;45.10
12897;BME280;6516;35.028;32.372;2023-11-19T08:36:57;98937.97;;;19.14;45.68
12897;BME280;6516;35.028;32.372;2023-11-19T08:39:24;98945.66;;;19.19;45.55
12897;BME280;6516;35.028;32.372;2023-11-19T08:41:54;98945.22;;;19.12;45.35
12897;BME280;6516;35.028;32.372;2023-11-19T08:44:22;98944.47;;;19.10;45.79
12897;BME280;6516;35.028;32.372;2023-11-19T08:46:50;98945.84;;;19.16;45.20
12897;BME280;6516;35.028;32.372;2023-11-19T08:49:18;98938.31;;;19.10;44.98
12897;BME280;6516;35.028;32.372;2023-11-19T08:51:46;98933.38;;;19.16;45.42
12897;BME280;6516;35.028;32.372;2023-11-19T08:54:14;98936.16;;;19.15;44.91
12897;BME280;6516;35.028;32.372;2023-11-19T08:56:42;98934.72;;;19.47;45.49
12897;BME280;6516;35.028;32.372;2023-11-19T08:59:11;98918.81;;;19.93;44.46
12897;BME280;6516;35.028;32.372;2023-11-19T09:01:39;98919.66;;;20.17;43.37
12897;BME280;6516;35.028;32.372;2023-11-19T09:04:06;98914.75;;;20.45;42.91
12897;BME280;6516;35.028;32.372;2023-11-19T09:06:35;98915.38;;;20.82;42.94
12897;BME280;6516;35.028;32.372;2023-11-19T09:09:03;98904.13;;;21.00;42.60
12897;BME280;6516;35.028;32.372;2023-11-19T09:11:31;98888.25;;;21.30;42.81
12897;BME280;6516;35.028;32.372;2023-11-19T09:13:59;98869.78;;;21.59;41.35
12897;BME280;6516;35.028;32.372;2023-11-19T09:16:28;98860.81;;;21.49;41.98
12897;BME280;6516;35.028;32.372;2023-11-19T09:18:56;98855.69;;;21.14;41.12
12897;BME280;6516;35.028;32.372;2023-11-19T09:21:25;98881.22;;;20.74;41.88
12897;BME280;6516;35.028;32.372;2023-11-19T09:23:52;98890.91;;;20.53;42.16
12897;BME280;6516;35.028;32.372;2023-11-19T09:26:20;98888.72;;;20.36;41.31
12897;BME280;6516;35.028;32.372;2023-11-19T09:28:48;98885.91;;;20.03;41.70
12897;BME280;6516;35.028;32.372;2023-11-19T09:31:16;98901.44;;;19.98;43.48
12897;BME280;6516;35.028;32.372;2023-11-19T09:33:46;98896.88;;;19.77;44.33
12897;BME280;6516;35.028;32.372;2023-11-19T09:36:14;98899.22;;;19.58;45.21
12897;BME280;6516;35.028;32.372;2023-11-19T09:38:42;98887.63;;;19.46;45.09
12897;BME280;6516;35.028;32.372;2023-11-19T09:41:11;98892.09;;;19.45;45.78
12897;BME280;6516;35.028;32.372;2023-11-19T09:43:40;98875.09;;;19.46;46.45
12897;BME280;6516;35.028;32.372;2023-11-19T09:46:09;98871.81;;;19.43;47.09
12897;BME280;6516;35.028;32.372;2023-11-19T09:48:38;98881.03;;;19.39;46.33
12897;BME280;6516;35.028;32.372;2023-11-19T09:51:08;98889.28;;;19.36;46.13
12897;BME280;6516;35.028;32.372;2023-11-19T09:53:37;98889.09;;;19.14;46.65
12897;BME280;6516;35.028;32.372;2023-11-19T09:56:06;98896.78;;;19.06;46.93
12897;BME280;6516;35.028;32.372;2023-11-19T09:58:34;98898.31;;;18.97;47.64
12897;BME280;6516;35.028;32.372;2023-11-19T10:01:02;98907.06;;;18.99;49.67
12897;BME280;6516;35.028;32.372;2023-11-19T10:03:34;98903.03;;;18.81;57.19
12897;BME280;6516;35.028;32.372;2023-11-19T10:06:07;98904.53;;;18.73;57.99
12897;BME280;6516;35.028;32.372;2023-11-19T10:08:37;98910.28;;;18.54;58.66
12897;BME280;6516;35.028;32.372;2023-11-19T10:11:06;98903.56;;;18.36;60.20
12897;BME280;6516;35.028;32.372;2023-11-19T10:13:35;98897.03;;;18.28;61.59
12897;BME280;6516;35.028;32.372;2023-11-19T10:16:07;98884.56;;;18.28;62.14
12897;BME280;6516;35.028;32.372;2023-11-19T10:18:37;98900.09;;;18.22;62.18
12897;BME280;6516;35.028;32.372;2023-11-19T10:21:07;98924.31;;;18.19;61.18
12897;BME280;6516;35.028;32.372;2023-11-19T10:23:50;98912.59;;;18.09;62.26
12897;BME280;6516;35.028;32.372;2023-11-19T10:26:20;98904.16;;;18.15;61.88
12897;BME280;6516;35.028;32.372;2023-11-19T10:28:48;98901.41;;;18.29;61.49
12897;BME280;6516;35.028;32.372;2023-11-19T10:31:18;98911.34;;;18.27;62.60
12897;BME280;6516;35.028;32.372;2023-11-19T10:33:50;98893.63;;;18.26;61.15
12897;BME280;6516;35.028;32.372;2023-11-19T10:36:20;98897.50;;;18.34;61.04
12897;BME280;6516;35.028;32.372;2023-11-19T10:38:53;98906.78;;;18.41;60.37
12897;BME280;6516;35.028;32.372;2023-11-19T10:41:28;98887.16;;;18.42;58.63
12897;BME280;6516;35.028;32.372;2023-11-19T10:43:56;98880.47;;;18.37;57.93
12897;BME280;6516;35.028;32.372;2023-11-19T10:46:36;98882.78;;;18.41;57.23
12897;BME280;6516;35.028;32.372;2023-11-19T10:49:05;98877.56;;;18.40;57.05
12897;BME280;6516;35.028;32.372;2023-11-19T10:51:35;98892.72;;;18.39;56.91
12897;BME280;6516;35.028;32.372;2023-11-19T10:54:04;98899.41;;;18.45;56.36
12897;BME280;6516;35.028;32.372;2023-11-19T10:56:33;98891.75;;;18.40;55.43
12897;BME280;6516;35.028;32.372;2023-11-19T10:59:01;98889.19;;;18.39;55.29
12897;BME280;6516;35.028;32.372;2023-11-19T11:01:35;98886.84;;;18.34;55.05
12897;BME280;6516;35.028;32.372;2023-11-19T11:04:13;98879.69;;;18.35;54.08
12897;BME280;6516;35.028;32.372;2023-11-19T11:06:44;98884.06;;;18.36;54.69
12897;BME280;6516;35.028;32.372;2023-11-19T11:09:13;98897.19;;;18.39;54.02
12897;BME280;6516;35.028;32.372;2023-11-19T11:11:46;98892.19;;;18.34;53.65
12897;BME280;6516;35.028;32.372;2023-11-19T11:14:16;98896.81;;;18.31;52.22
12897;BME280;6516;35.028;32.372;2023-11-19T11:16:46;98896.50;;;18.23;52.61
12897;BME280;6516;35.028;32.372;2023-11-19T11:19:16;98900.09;;;18.22;52.70
12897;BME280;6516;35.028;32.372;2023-11-19T11:21:52;98904.28;;;18.26;52.67
12897;BME280;6516;35.028;32.372;2023-11-19T11:24:37;98901.31;;;18.18;53.18
12897;BME280;6516;35.028;32.372;2023-11-19T11:27:36;98893.09;;;18.21;53.66
12897;BME280;6516;35.028;32.372;2023-11-19T11:30:25;98887.47;;;18.38;53.44
12897;BME280;6516;35.028;32.372;2023-11-19T11:33:10;98895.69;;;18.60;51.26
12897;BME280;6516;35.028;32.372;2023-11-19T11:35:55;98893.34;;;18.68;51.41
12897;BME280;6516;35.028;32.372;2023-11-19T11:38:35;98899.22;;;18.73;51.47
12897;BME280;6516;35.028;32.372;2023-11-19T11:41:18;98896.44;;;18.62;52.03
12897;BME280;6516;35.028;32.372;2023-11-19T11:43:47;98906.56;;;18.44;52.37
12897;BME280;6516;35.028;32.372;2023-11-19T11:46:53;98911.66;;;18.35;52.43
12897;BME280;6516;35.028;32.372;2023-11-19T11:49:28;98910.22;;;18.17;52.21
12897;BME280;6516;35.028;32.372;2023-11-19T11:52:03;98896.81;;;18.06;52.50
12897;BME280;6516;35.028;32.372;2023-11-19T11:54:33;98889.16;;;18.14;52.88
12897;BME280;6516;35.028;32.372;2023-11-19T11:57:08;98893.09;;;18.21;53.44
12897;BME280;6516;35.028;32.372;2023-11-19T11:59:42;98879.88;;;18.32;53.07
12897;BME280;6516;35.028;32.372;2023-11-19T12:02:12;98874.78;;;18.66;51.14
12897;BME280;6516;35.028;32.372;2023-11-19T12:04:42;98881.88;;;19.03;51.14
12897;BME280;6516;35.028;32.372;2023-11-19T12:07:13;98880.22;;;19.26;50.43
12897;BME280;6516;35.028;32.372;2023-11-19T12:09:47;98878.50;;;19.25;50.42
12897;BME280;6516;35.028;32.372;2023-11-19T12:12:21;98875.25;;;19.09;50.38
12897;BME280;6516;35.028;32.372;2023-11-19T12:15:04;98880.72;;;18.95;51.04
12897;BME280;6516;35.028;32.372;2023-11-19T12:17:41;98875.50;;;18.81;51.23
12897;BME280;6516;35.028;32.372;2023-11-19T12:20:11;98878.28;;;18.79;51.62
12897;BME280;6516;35.028;32.372;2023-11-19T12:22:40;98875.56;;;19.04;51.54
12897;BME280;6516;35.028;32.372;2023-11-19T12:25:10;98877.94;;;19.32;50.79
12897;BME280;6516;35.028;32.372;2023-11-19T12:27:39;98868.94;;;19.46;49.97
12897;BME280;6516;35.028;32.372;2023-11-19T12:30:08;98875.72;;;19.73;50.24
12897;BME280;6516;35.028;32.372;2023-11-19T12:32:40;98881.75;;;19.88;49.05
12897;BME280;6516;35.028;32.372;2023-11-19T12:35:09;98887.28;;;19.74;48.38
12897;BME280;6516;35.028;32.372;2023-11-19T12:37:41;98892.56;;;19.63;48.87
12897;BME280;6516;35.028;32.372;2023-11-19T12:40:18;98892.94;;;19.69;51.35
12897;BME280;6516;35.028;32.372;2023-11-19T12:42:47;98898.34;;;19.57;51.86
12897;BME280;6516;35.028;32.372;2023-11-19T12:45:15;98894.94;;;19.31;53.88
12897;BME280;6516;35.028;32.372;2023-11-19T12:47:44;98896.59;;;19.09;53.44
12897;BME280;6516;35.028;32.372;2023-11-19T12:50:14;98893.50;;;18.90;52.87
12897;BME280;6516;35.028;32.372;2023-11-19T12:52:55;98892.59;;;18.53;54.51
12897;BME280;6516;35.028;32.372;2023-11-19T12:55:28;98892.28;;;18.33;54.38
12897;BME280;6516;35.028;32.372;2023-11-19T12:57:58;98896.28;;;18.13;54.63
12897;BME280;6516;35.028;32.372;2023-11-19T13:00:26;98897.63;;;17.94;53.75
12897;BME280;6516;35.028;32.372;2023-11-19T13:02:56;98900.16;;;17.83;53.26
12897;BME280;6516;35.028;32.372;2023-11-19T13:05:26;98909.94;;;17.82;53.48
12897;BME280;6516;35.028;32.372;2023-11-19T13:08:04;98912.63;;;17.95;53.98
12897;BME280;6516;35.028;32.372;2023-11-19T13:10:50;98912.34;;;18.12;54.97
12897;BME280;6516;35.028;32.372;2023-11-19T13:13:19;98917.50;;;18.15;54.25